Emden — 3ERP5 — position and weather

sailwx.info

Track history (hours):
 
Tides and Currents Weather Stations Pressure Air Temp Water Temp Dewpoint Dewpoint Depression Visibility Wind Speed Wind Dir Waves Ship Positions

Emden

Last reported at 2014-Dec-19 08:31 UTC. Time now 2014-Dec-19 08:39 UTC.
Position N 53°20' E 007°11'.

Length 177 m; draft 7.4 m.

Type: Ship. MMSI: 355051000.

Date/timePositionNaut miles runAvg speedWind from/ knotsBaromVisibWave heightAir tempDewpointWater temp
2014-Dec-19 08:31N 53°20' E 007°11'0 0.0
2014-Dec-19 07:31N 53°20' E 007°11'0 0.0
2014-Dec-19 06:31N 53°20' E 007°11'0 0.0
2014-Dec-19 05:31N 53°20' E 007°11'0 0.0
2014-Dec-19 04:31N 53°20' E 007°11'0 0.0
2014-Dec-19 03:31N 53°20' E 007°11'0 0.0
2014-Dec-19 02:31N 53°20' E 007°11'0 0.0
2014-Dec-19 01:33N 53°20' E 007°11'2 2.4
2014-Dec-19 00:33N 53°20' E 007°07'9 8.6
2014-Dec-18 23:33N 53°25' E 006°56'1212.4
2014-Dec-18 22:33N 53°34' E 006°40'1312.6
2014-Dec-18 21:33N 53°37' E 006°20'1111.0
2014-Dec-18 20:33N 53°40' E 006°02'1313.3
2014-Dec-18 19:34N 53°36' E 005°41'1716.8
2014-Dec-18 18:33N 53°32' E 005°13'1717.0
2014-Dec-18 17:33N 53°26' E 004°46'1615.9
2014-Dec-18 16:33N 53°13' E 004°32'1616.4
2014-Dec-18 15:34N 52°58' E 004°19'1716.7
2014-Dec-18 14:33N 52°44' E 004°04'1717.0
2014-Dec-18 13:33N 52°31' E 003°47'5317.5
2014-Dec-18 10:32N 51°53' E 002°47'1817.9
2014-Dec-18 09:33N 51°40' E 002°28'1817.3
2014-Dec-18 08:33N 51°26' E 002°12'1515.2
2014-Dec-18 07:33N 51°12' E 002°01'1716.8
2014-Dec-18 06:33N 51°02' E 001°40'6014.9
2014-Dec-18 02:33N 50°25' E 000°27'25510.6
2014-Dec-17 02:32N 51°52' W 005°55'1414.1
2014-Dec-17 01:34N 52°06' W 005°54'1515.2
2014-Dec-17 00:34N 52°21' W 005°54'1616.2
2014-Dec-16 23:33N 52°37' W 005°53'3 0.2
2014-Dec-16 02:31N 52°40' W 005°50'1515.7
2014-Dec-16 01:33N 52°25' W 005°47'1615.2
2014-Dec-16 00:31N 52°09' W 005°48'1814.6
2014-Dec-15 23:15N 51°51' W 005°47'139 9.9
2014-Dec-15 09:15N 49°56' W 003°43'8914.9
2014-Dec-15 03:17N 50°17' W 001°29'912.8
2014-Dec-15 02:33N 50°19' W 001°14'1312.1
2014-Dec-15 01:27N 50°22' W 000°54'1111.8
2014-Dec-15 00:33N 50°26' W 000°38'1211.6
2014-Dec-14 23:31N 50°29' W 000°20'1212.1
2014-Dec-14 22:33N 50°32' W 000°02'1312.7
2014-Dec-14 21:33N 50°35' E 000°17'1313.0
2014-Dec-14 20:33N 50°39' E 000°37'1313.0
2014-Dec-14 19:33N 50°46' E 000°53'1312.4
2014-Dec-14 18:31N 50°54' E 001°09'1111.5
2014-Dec-14 17:33N 51°02' E 001°22'1110.8
2014-Dec-14 16:34N 51°09' E 001°35'1111.0
2014-Dec-14 15:33N 51°20' E 001°38'10 9.9
2014-Dec-14 14:33N 51°27' E 001°28'1211.8
2014-Dec-14 13:33N 51°29' E 001°09'1111.4
2014-Dec-14 12:33N 51°29' E 000°51'5 4.6
2014-Dec-14 11:31N 51°26' E 000°44'0 0.0
2014-Dec-14 10:31N 51°26' E 000°44'0 0.0
2014-Dec-14 09:31N 51°26' E 000°44'0 0.0
2014-Dec-14 08:31N 51°26' E 000°44'0 0.0
2014-Dec-14 07:31N 51°26' E 000°44'0 0.0
2014-Dec-14 06:31N 51°26' E 000°44'0 0.0
2014-Dec-14 05:31N 51°26' E 000°44'0 0.0
2014-Dec-14 04:31N 51°26' E 000°44'0 0.0
2014-Dec-14 03:31N 51°26' E 000°44'0 0.0
2014-Dec-14 02:31N 51°26' E 000°44'0 0.0
2014-Dec-14 01:31N 51°26' E 000°44'0 0.0
2014-Dec-14 00:31N 51°26' E 000°44'0 0.0
2014-Dec-13 23:31N 51°26' E 000°44'6 6.3
2014-Dec-13 22:33N 51°29' E 000°53'9 9.0
2014-Dec-13 21:33N 51°29' E 001°08'1110.9
2014-Dec-13 20:34N 51°29' E 001°25'5 4.7
2014-Dec-13 19:33N 51°27' E 001°32'4 3.7
2014-Dec-13 18:33N 51°31' E 001°32'0 0.0
2014-Dec-13 17:33N 51°31' E 001°32'0 0.0
2014-Dec-13 16:33N 51°31' E 001°32'0 0.0
2014-Dec-13 15:33N 51°31' E 001°32'0 0.0
2014-Dec-13 14:33N 51°31' E 001°32'0 0.0
2014-Dec-13 13:33N 51°31' E 001°32'0 0.0
2014-Dec-13 12:33N 51°31' E 001°32'0 0.0
2014-Dec-13 11:30N 51°31' E 001°32'0 0.1
2014-Dec-13 10:33N 51°31' E 001°32'6 6.1
2014-Dec-13 09:33N 51°31' E 001°42'1010.4
2014-Dec-13 08:33N 51°34' E 001°57'10 9.8
2014-Dec-13 07:33N 51°40' E 002°10'11 9.4
2014-Dec-13 06:22N 51°47' E 002°23'4 5.3
2014-Dec-13 05:32N 51°50' E 002°29'74 5.7
2014-Dec-12 16:32N 52°48' E 003°45'8 8.6
2014-Dec-12 15:33N 52°54' E 003°54'9 8.8
2014-Dec-12 14:33N 53°01' E 004°04'9 8.6
2014-Dec-12 13:33N 53°06' E 004°15'23 7.8
2014-Dec-12 10:33N 53°26' E 004°36'5 3.8
2014-Dec-12 09:12N 53°29' E 004°42'2 3.5
2014-Dec-12 08:31N 53°30' E 004°46'6 5.7
2014-Dec-12 07:33N 53°32' E 004°54'9 9.2
2014-Dec-12 06:33N 53°35' E 005°09'1110.8
2014-Dec-12 05:33N 53°38' E 005°26'1111.3
2014-Dec-12 04:33N 53°42' E 005°44'1111.4
2014-Dec-12 03:33N 53°44' E 006°03'1110.8
2014-Dec-12 02:32N 53°38' E 006°19'8 8.3
2014-Dec-12 01:31N 53°37' E 006°33'1111.3
2014-Dec-12 00:33N 53°30' E 006°48'1111.2
2014-Dec-11 23:33N 53°22' E 006°59'7 6.8
2014-Dec-11 22:33N 53°20' E 007°10'0 0.5
2014-Dec-11 21:33N 53°20' E 007°11'0 0.0
2014-Dec-11 20:33N 53°20' E 007°11'0 0.0
2014-Dec-11 19:33N 53°20' E 007°11'0 0.0
2014-Dec-11 18:33N 53°20' E 007°11'0 0.0
2014-Dec-11 17:33N 53°20' E 007°11'0 0.0
2014-Dec-11 16:33N 53°20' E 007°11'0 0.0
2014-Dec-11 15:33N 53°20' E 007°11'0 0.0
2014-Dec-11 14:33N 53°20' E 007°11'0 0.0
2014-Dec-11 13:33N 53°20' E 007°11'0 0.0
2014-Dec-11 12:33N 53°20' E 007°11'0 0.0
2014-Dec-11 11:33N 53°20' E 007°11'0 0.0
2014-Dec-11 10:33N 53°20' E 007°11'0 0.0
2014-Dec-11 09:33N 53°20' E 007°11'0 0.0
2014-Dec-11 08:33N 53°20' E 007°11'0 0.0
2014-Dec-11 07:33N 53°20' E 007°11'0 0.0
2014-Dec-11 06:33N 53°20' E 007°11'0 0.0
2014-Dec-11 05:33N 53°20' E 007°11'0 0.0
2014-Dec-11 04:33N 53°20' E 007°11'0 0.0
2014-Dec-11 03:33N 53°20' E 007°11'0 0.0
2014-Dec-11 02:33N 53°20' E 007°11'0 0.0
2014-Dec-11 01:33N 53°20' E 007°11'0 0.0
2014-Dec-11 00:34N 53°20' E 007°11'0 0.0
2014-Dec-10 23:33N 53°20' E 007°11'0 0.0
2014-Dec-10 22:33N 53°20' E 007°11'0 0.0
2014-Dec-10 21:33N 53°20' E 007°11'0 0.0
2014-Dec-10 20:33N 53°20' E 007°11'0 0.0
2014-Dec-10 19:33N 53°20' E 007°11'0 0.0
2014-Dec-10 18:33N 53°20' E 007°11'0 0.0
2014-Dec-10 17:33N 53°20' E 007°11'0 0.0
2014-Dec-10 16:33N 53°20' E 007°11'0 0.0
2014-Dec-10 15:33N 53°20' E 007°11'0 0.0
2014-Dec-10 14:33N 53°20' E 007°11'0 0.0
2014-Dec-10 13:33N 53°20' E 007°11'0 0.0
2014-Dec-10 12:33N 53°20' E 007°11'0 0.0
2014-Dec-10 11:33N 53°20' E 007°11'6 5.7
2014-Dec-10 10:33N 53°19' E 007°01'1212.3
2014-Dec-10 09:33N 53°29' E 006°49'1211.9
2014-Dec-10 08:33N 53°37' E 006°33'8 7.8
2014-Dec-10 07:33N 53°39' E 006°21'2 2.3
2014-Dec-10 06:33N 53°40' E 006°17'3 3.0
2014-Dec-10 05:33N 53°39' E 006°12'3 2.5
2014-Dec-10 04:33N 53°41' E 006°09'7 6.8
2014-Dec-10 03:33N 53°40' E 005°58'1212.3
2014-Dec-10 02:33N 53°36' E 005°38'1212.4
2014-Dec-10 01:33N 53°32' E 005°18'1312.7
2014-Dec-10 00:33N 53°28' E 004°58'1312.6
2014-Dec-09 23:33N 53°21' E 004°40'1414.0
2014-Dec-09 22:33N 53°08' E 004°29'1414.1
2014-Dec-09 21:33N 52°56' E 004°18'1414.2
2014-Dec-09 20:33N 52°44' E 004°05'1514.8
2014-Dec-09 19:33N 52°33' E 003°49'1514.9
2014-Dec-09 18:33N 52°23' E 003°31'4815.7
2014-Dec-09 15:29N 51°47' E 002°38'1516.1
2014-Dec-09 14:32N 51°35' E 002°23'1515.7
2014-Dec-09 13:33N 51°22' E 002°10'3115.5
2014-Dec-09 11:34N 51°00' E 001°35'1615.8
2014-Dec-09 10:33N 50°47' E 001°22'1615.6
2014-Dec-09 09:31N 50°35' E 001°05'  
Track history (hours):
 
Tides and Currents Weather Stations Pressure Air Temp Water Temp Dewpoint Dewpoint Depression Visibility Wind Speed Wind Dir Waves Ship Positions

Emden

Last reported at 2014-Dec-19 08:31 UTC. Time now 2014-Dec-19 08:39 UTC.
Position N 53°20' E 007°11'.

Length 177 m; draft 7.4 m.

Type: Ship. MMSI: 355051000.

Date/timePositionNaut miles runAvg speedWind from/ knotsBaromVisibWave heightAir tempDewpointWater temp
2014-Dec-19 08:31N 53°20' E 007°11'0 0.0
2014-Dec-19 07:31N 53°20' E 007°11'0 0.0
2014-Dec-19 06:31N 53°20' E 007°11'0 0.0
2014-Dec-19 05:31N 53°20' E 007°11'0 0.0
2014-Dec-19 04:31N 53°20' E 007°11'0 0.0
2014-Dec-19 03:31N 53°20' E 007°11'0 0.0
2014-Dec-19 02:31N 53°20' E 007°11'0 0.0
2014-Dec-19 01:33N 53°20' E 007°11'2 2.4
2014-Dec-19 00:33N 53°20' E 007°07'9 8.6
2014-Dec-18 23:33N 53°25' E 006°56'1212.4
2014-Dec-18 22:33N 53°34' E 006°40'1312.6
2014-Dec-18 21:33N 53°37' E 006°20'1111.0
2014-Dec-18 20:33N 53°40' E 006°02'1313.3
2014-Dec-18 19:34N 53°36' E 005°41'1716.8
2014-Dec-18 18:33N 53°32' E 005°13'1717.0
2014-Dec-18 17:33N 53°26' E 004°46'1615.9
2014-Dec-18 16:33N 53°13' E 004°32'1616.4
2014-Dec-18 15:34N 52°58' E 004°19'1716.7
2014-Dec-18 14:33N 52°44' E 004°04'1717.0
2014-Dec-18 13:33N 52°31' E 003°47'5317.5
2014-Dec-18 10:32N 51°53' E 002°47'1817.9
2014-Dec-18 09:33N 51°40' E 002°28'1817.3
2014-Dec-18 08:33N 51°26' E 002°12'1515.2
2014-Dec-18 07:33N 51°12' E 002°01'1716.8
2014-Dec-18 06:33N 51°02' E 001°40'6014.9
2014-Dec-18 02:33N 50°25' E 000°27'25510.6
2014-Dec-17 02:32N 51°52' W 005°55'1414.1
2014-Dec-17 01:34N 52°06' W 005°54'1515.2
2014-Dec-17 00:34N 52°21' W 005°54'1616.2
2014-Dec-16 23:33N 52°37' W 005°53'3 0.2
2014-Dec-16 02:31N 52°40' W 005°50'1515.7
2014-Dec-16 01:33N 52°25' W 005°47'1615.2
2014-Dec-16 00:31N 52°09' W 005°48'1814.6
2014-Dec-15 23:15N 51°51' W 005°47'139 9.9
2014-Dec-15 09:15N 49°56' W 003°43'8914.9
2014-Dec-15 03:17N 50°17' W 001°29'912.8
2014-Dec-15 02:33N 50°19' W 001°14'1312.1
2014-Dec-15 01:27N 50°22' W 000°54'1111.8
2014-Dec-15 00:33N 50°26' W 000°38'1211.6
2014-Dec-14 23:31N 50°29' W 000°20'1212.1
2014-Dec-14 22:33N 50°32' W 000°02'1312.7
2014-Dec-14 21:33N 50°35' E 000°17'1313.0
2014-Dec-14 20:33N 50°39' E 000°37'1313.0
2014-Dec-14 19:33N 50°46' E 000°53'1312.4
2014-Dec-14 18:31N 50°54' E 001°09'1111.5
2014-Dec-14 17:33N 51°02' E 001°22'1110.8
2014-Dec-14 16:34N 51°09' E 001°35'1111.0
2014-Dec-14 15:33N 51°20' E 001°38'10 9.9
2014-Dec-14 14:33N 51°27' E 001°28'1211.8
2014-Dec-14 13:33N 51°29' E 001°09'1111.4
2014-Dec-14 12:33N 51°29' E 000°51'5 4.6
2014-Dec-14 11:31N 51°26' E 000°44'0 0.0
2014-Dec-14 10:31N 51°26' E 000°44'0 0.0
2014-Dec-14 09:31N 51°26' E 000°44'0 0.0
2014-Dec-14 08:31N 51°26' E 000°44'0 0.0
2014-Dec-14 07:31N 51°26' E 000°44'0 0.0
2014-Dec-14 06:31N 51°26' E 000°44'0 0.0
2014-Dec-14 05:31N 51°26' E 000°44'0 0.0
2014-Dec-14 04:31N 51°26' E 000°44'0 0.0
2014-Dec-14 03:31N 51°26' E 000°44'0 0.0
2014-Dec-14 02:31N 51°26' E 000°44'0 0.0
2014-Dec-14 01:31N 51°26' E 000°44'0 0.0
2014-Dec-14 00:31N 51°26' E 000°44'0 0.0
2014-Dec-13 23:31N 51°26' E 000°44'6 6.3
2014-Dec-13 22:33N 51°29' E 000°53'9 9.0
2014-Dec-13 21:33N 51°29' E 001°08'1110.9
2014-Dec-13 20:34N 51°29' E 001°25'5 4.7
2014-Dec-13 19:33N 51°27' E 001°32'4 3.7
2014-Dec-13 18:33N 51°31' E 001°32'0 0.0
2014-Dec-13 17:33N 51°31' E 001°32'0 0.0
2014-Dec-13 16:33N 51°31' E 001°32'0 0.0
2014-Dec-13 15:33N 51°31' E 001°32'0 0.0
2014-Dec-13 14:33N 51°31' E 001°32'0 0.0
2014-Dec-13 13:33N 51°31' E 001°32'0 0.0
2014-Dec-13 12:33N 51°31' E 001°32'0 0.0
2014-Dec-13 11:30N 51°31' E 001°32'0 0.1
2014-Dec-13 10:33N 51°31' E 001°32'6 6.1
2014-Dec-13 09:33N 51°31' E 001°42'1010.4
2014-Dec-13 08:33N 51°34' E 001°57'10 9.8
2014-Dec-13 07:33N 51°40' E 002°10'11 9.4
2014-Dec-13 06:22N 51°47' E 002°23'4 5.3
2014-Dec-13 05:32N 51°50' E 002°29'74 5.7
2014-Dec-12 16:32N 52°48' E 003°45'8 8.6
2014-Dec-12 15:33N 52°54' E 003°54'9 8.8
2014-Dec-12 14:33N 53°01' E 004°04'9 8.6
2014-Dec-12 13:33N 53°06' E 004°15'23 7.8
2014-Dec-12 10:33N 53°26' E 004°36'5 3.8
2014-Dec-12 09:12N 53°29' E 004°42'2 3.5
2014-Dec-12 08:31N 53°30' E 004°46'6 5.7
2014-Dec-12 07:33N 53°32' E 004°54'9 9.2
2014-Dec-12 06:33N 53°35' E 005°09'1110.8
2014-Dec-12 05:33N 53°38' E 005°26'1111.3
2014-Dec-12 04:33N 53°42' E 005°44'1111.4
2014-Dec-12 03:33N 53°44' E 006°03'1110.8
2014-Dec-12 02:32N 53°38' E 006°19'8 8.3
2014-Dec-12 01:31N 53°37' E 006°33'1111.3
2014-Dec-12 00:33N 53°30' E 006°48'1111.2
2014-Dec-11 23:33N 53°22' E 006°59'7 6.8
2014-Dec-11 22:33N 53°20' E 007°10'0 0.5
2014-Dec-11 21:33N 53°20' E 007°11'0 0.0
2014-Dec-11 20:33N 53°20' E 007°11'0 0.0
2014-Dec-11 19:33N 53°20' E 007°11'0 0.0
2014-Dec-11 18:33N 53°20' E 007°11'0 0.0
2014-Dec-11 17:33N 53°20' E 007°11'0 0.0
2014-Dec-11 16:33N 53°20' E 007°11'0 0.0
2014-Dec-11 15:33N 53°20' E 007°11'0 0.0
2014-Dec-11 14:33N 53°20' E 007°11'0 0.0
2014-Dec-11 13:33N 53°20' E 007°11'0 0.0
2014-Dec-11 12:33N 53°20' E 007°11'0 0.0
2014-Dec-11 11:33N 53°20' E 007°11'0 0.0
2014-Dec-11 10:33N 53°20' E 007°11'0 0.0
2014-Dec-11 09:33N 53°20' E 007°11'0 0.0
2014-Dec-11 08:33N 53°20' E 007°11'0 0.0
2014-Dec-11 07:33N 53°20' E 007°11'0 0.0
2014-Dec-11 06:33N 53°20' E 007°11'0 0.0
2014-Dec-11 05:33N 53°20' E 007°11'0 0.0
2014-Dec-11 04:33N 53°20' E 007°11'0 0.0
2014-Dec-11 03:33N 53°20' E 007°11'0 0.0
2014-Dec-11 02:33N 53°20' E 007°11'0 0.0
2014-Dec-11 01:33N 53°20' E 007°11'0 0.0
2014-Dec-11 00:34N 53°20' E 007°11'0 0.0
2014-Dec-10 23:33N 53°20' E 007°11'0 0.0
2014-Dec-10 22:33N 53°20' E 007°11'0 0.0
2014-Dec-10 21:33N 53°20' E 007°11'0 0.0
2014-Dec-10 20:33N 53°20' E 007°11'0 0.0
2014-Dec-10 19:33N 53°20' E 007°11'0 0.0
2014-Dec-10 18:33N 53°20' E 007°11'0 0.0
2014-Dec-10 17:33N 53°20' E 007°11'0 0.0
2014-Dec-10 16:33N 53°20' E 007°11'0 0.0
2014-Dec-10 15:33N 53°20' E 007°11'0 0.0
2014-Dec-10 14:33N 53°20' E 007°11'0 0.0
2014-Dec-10 13:33N 53°20' E 007°11'0 0.0
2014-Dec-10 12:33N 53°20' E 007°11'0 0.0
2014-Dec-10 11:33N 53°20' E 007°11'6 5.7
2014-Dec-10 10:33N 53°19' E 007°01'1212.3
2014-Dec-10 09:33N 53°29' E 006°49'1211.9
2014-Dec-10 08:33N 53°37' E 006°33'8 7.8
2014-Dec-10 07:33N 53°39' E 006°21'2 2.3
2014-Dec-10 06:33N 53°40' E 006°17'3 3.0
2014-Dec-10 05:33N 53°39' E 006°12'3 2.5
2014-Dec-10 04:33N 53°41' E 006°09'7 6.8
2014-Dec-10 03:33N 53°40' E 005°58'1212.3
2014-Dec-10 02:33N 53°36' E 005°38'1212.4
2014-Dec-10 01:33N 53°32' E 005°18'1312.7
2014-Dec-10 00:33N 53°28' E 004°58'1312.6
2014-Dec-09 23:33N 53°21' E 004°40'1414.0
2014-Dec-09 22:33N 53°08' E 004°29'1414.1
2014-Dec-09 21:33N 52°56' E 004°18'1414.2
2014-Dec-09 20:33N 52°44' E 004°05'1514.8
2014-Dec-09 19:33N 52°33' E 003°49'1514.9
2014-Dec-09 18:33N 52°23' E 003°31'4815.7
2014-Dec-09 15:29N 51°47' E 002°38'1516.1
2014-Dec-09 14:32N 51°35' E 002°23'1515.7
2014-Dec-09 13:33N 51°22' E 002°10'3115.5
2014-Dec-09 11:34N 51°00' E 001°35'1615.8
2014-Dec-09 10:33N 50°47' E 001°22'1615.6
2014-Dec-09 09:31N 50°35' E 001°05'  

Dump ship's entire track history